Toms Brook, Virginia
Current Conditions -  °F | °C
As of 4:55 PM on Friday 24 Oct 2014 (Local Time) from KFRR Reporting Station
Clear Clear  
Wind Chill: 64°   Ceiling: Unl
Heat Index: 64°   Visibility: 10mi
Dew Point: 32°   Wind: 6mph
Humidity: 30%   Direction: 330°NNW
Pressure: 29.93"   Gusts: NA
Location:  38.95°N, 78.44°W
Report Text: KFRR 242055Z AUTO 33005KT 10SM CLR 18/00 A2993 RMK AO1
Loading
Personal Weather Stations






























Interactive Weather Map
Tropical Storm Tracking
New forecast layout! Learn more

10-Day Weather Forecast

Advertisements
Track Severe Weather on mobile